Time;durP1;ratioP1;P1;durP2;ratioP2;P2;SDS_P1;SDS_P2;PMS_P1;PMS_P2;Temp;Humidity;BMP_temperature;BMP_pressure;BME280_temperature;BME280_humidity;BME280_pressure;Samples;Min_cycle;Max_cycle;Signal;HPM_P1;HPM_P2
2021/03/09 00:01:03;;;;;;;77.50;31.73;;;3.50;94.10;;;;;;4971853;28;20128;-85
2021/03/09 00:03:29;;;;;;;68.55;31.15;;;3.40;94.10;;;;;;4974421;28;20126;-83
2021/03/09 00:05:55;;;;;;;66.68;28.10;;;3.40;94.10;;;;;;4991303;28;20049;-82
2021/03/09 00:08:20;;;;;;;57.60;25.00;;;3.30;94.10;;;;;;5005744;28;20543;-82
2021/03/09 00:10:46;;;;;;;72.70;29.15;;;3.30;94.00;;;;;;4992742;28;20029;-84
2021/03/09 00:13:12;;;;;;;67.68;30.38;;;3.30;94.00;;;;;;4962450;28;20040;-82
2021/03/09 00:15:38;;;;;;;62.08;26.85;;;3.30;94.00;;;;;;4991313;28;20034;-82
2021/03/09 00:18:04;;;;;;;68.80;28.58;;;3.30;94.10;;;;;;4981077;28;20125;-81
2021/03/09 00:20:29;;;;;;;55.75;25.55;;;3.30;94.10;;;;;;4994575;28;21817;-82
2021/03/09 00:22:55;;;;;;;67.95;29.45;;;3.20;94.00;;;;;;4960145;28;20050;-83
2021/03/09 00:25:21;;;;;;;69.10;27.33;;;3.20;94.10;;;;;;4977042;28;20107;-82
2021/03/09 00:27:47;;;;;;;70.38;28.92;;;3.20;94.20;;;;;;4996933;28;20297;-82
2021/03/09 00:30:14;;;;;;;78.65;32.53;;;3.30;94.20;;;;;;4964952;28;20077;-82
2021/03/09 00:32:40;;;;;;;125.75;39.50;;;3.20;94.30;;;;;;4997253;28;20041;-84
2021/03/09 00:35:06;;;;;;;85.80;32.05;;;3.20;94.30;;;;;;4978584;28;20037;-81
2021/03/09 00:37:32;;;;;;;78.45;31.35;;;3.20;94.30;;;;;;4982028;28;20042;-83
2021/03/09 00:39:58;;;;;;;70.35;29.42;;;3.20;94.40;;;;;;4978844;28;20060;-82
2021/03/09 00:42:24;;;;;;;107.57;40.13;;;3.30;94.40;;;;;;4997109;28;20053;-81
2021/03/09 00:44:49;;;;;;;81.47;31.70;;;3.20;94.40;;;;;;4992079;28;20034;-83
2021/03/09 00:47:16;;;;;;;100.88;36.53;;;3.20;94.30;;;;;;4963032;28;20042;-82
2021/03/09 00:49:42;;;;;;;85.53;33.83;;;3.20;94.40;;;;;;4994581;28;20051;-83
2021/03/09 00:52:07;;;;;;;101.40;36.78;;;3.20;94.40;;;;;;4960703;28;20038;-82
2021/03/09 00:54:33;;;;;;;93.22;35.80;;;3.20;94.40;;;;;;4992808;28;20045;-83
2021/03/09 00:56:59;;;;;;;74.68;29.65;;;3.20;94.40;;;;;;4996544;28;20096;-83
2021/03/09 00:59:25;;;;;;;68.88;28.65;;;3.20;94.40;;;;;;4962242;28;20413;-84
2021/03/09 01:01:50;;;;;;;70.72;30.40;;;3.10;94.50;;;;;;4975432;28;20045;-83
2021/03/09 01:04:16;;;;;;;89.47;33.47;;;3.10;94.50;;;;;;4975870;28;20148;-84
2021/03/09 01:06:42;;;;;;;73.93;31.27;;;3.10;94.50;;;;;;4993106;28;20037;-83
2021/03/09 01:09:08;;;;;;;74.78;28.42;;;3.10;94.50;;;;;;4990729;28;20519;-82
2021/03/09 01:11:33;;;;;;;93.03;34.30;;;3.10;94.60;;;;;;4979200;28;20034;-82
2021/03/09 01:13:59;;;;;;;125.85;39.47;;;3.10;94.60;;;;;;4978469;28;20473;-83
2021/03/09 01:16:25;;;;;;;104.18;36.90;;;3.10;94.60;;;;;;4966068;28;20068;-80
2021/03/09 01:18:51;;;;;;;80.40;31.77;;;3.20;94.60;;;;;;4992182;28;21376;-82
2021/03/09 01:21:16;;;;;;;115.55;36.70;;;3.10;94.60;;;;;;4981808;28;20033;-81
2021/03/09 01:23:42;;;;;;;88.65;32.35;;;3.10;94.60;;;;;;4995641;28;20033;-79
2021/03/09 01:26:08;;;;;;;84.78;32.00;;;3.10;94.60;;;;;;4997573;28;20048;-83
2021/03/09 01:28:34;;;;;;;101.32;36.30;;;3.00;94.60;;;;;;4981317;28;20096;-80
2021/03/09 01:31:00;;;;;;;99.97;34.33;;;3.10;94.70;;;;;;4981918;28;20536;-80
2021/03/09 01:33:26;;;;;;;121.68;35.92;;;3.10;94.70;;;;;;4980560;28;20038;-80
2021/03/09 01:35:52;;;;;;;72.20;28.42;;;3.10;94.70;;;;;;4965975;28;20093;-79
2021/03/09 01:38:19;;;;;;;76.00;27.65;;;3.10;94.70;;;;;;4963694;28;20254;-79
2021/03/09 01:40:45;;;;;;;107.28;33.80;;;3.00;94.70;;;;;;4980613;28;20030;-83
2021/03/09 01:43:11;;;;;;;60.60;24.90;;;3.00;94.80;;;;;;4995225;28;20036;-82
2021/03/09 01:45:37;;;;;;;92.10;31.25;;;3.10;94.80;;;;;;4980857;28;20502;-81
2021/03/09 01:48:05;;;;;;;72.25;27.35;;;3.00;94.80;;;;;;4959295;28;20088;-80
2021/03/09 01:50:34;;;;;;;63.42;24.75;;;3.10;94.90;;;;;;4991969;28;20042;-78
2021/03/09 01:53:04;;;;;;;91.93;31.05;;;3.10;94.80;;;;;;4997157;28;20038;-80
2021/03/09 01:55:30;;;;;;;88.70;30.35;;;3.10;94.80;;;;;;4997408;28;20038;-80
2021/03/09 01:57:58;;;;;;;89.03;32.10;;;3.10;94.80;;;;;;4998225;28;20030;-79
2021/03/09 02:00:23;;;;;;;70.55;26.52;;;3.00;94.80;;;;;;4992781;28;20534;-79
2021/03/09 02:02:49;;;;;;;66.68;26.70;;;3.10;94.90;;;;;;4978370;28;20034;-80
2021/03/09 02:05:15;;;;;;;72.95;27.05;;;3.10;94.90;;;;;;4993936;28;20026;-80
2021/03/09 02:07:41;;;;;;;68.13;26.40;;;3.10;94.90;;;;;;4990982;28;20591;-80
2021/03/09 02:10:11;;;;;;;57.97;23.75;;;3.10;95.00;;;;;;4970756;28;20059;-79
2021/03/09 02:13:04;;;;;;;61.97;25.75;;;3.10;95.00;;;;;;4995177;28;20042;-82
2021/03/09 02:15:39;;;;;;;100.47;31.40;;;3.10;95.00;;;;;;4991160;28;20488;-79
2021/03/09 02:18:40;;;;;;;73.13;26.95;;;3.10;95.00;;;;;;4997977;28;20507;-81
2021/03/09 02:21:51;;;;;;;84.70;28.88;;;3.10;94.90;;;;;;4992139;28;20065;-80
2021/03/09 02:24:38;;;;;;;75.70;28.63;;;3.10;95.00;;;;;;4977704;28;20054;-81
2021/03/09 02:27:25;;;;;;;70.20;25.50;;;3.10;95.00;;;;;;4994449;28;20465;-82
2021/03/09 02:30:13;;;;;;;90.63;29.90;;;3.10;94.90;;;;;;5003461;28;20046;-81
2021/03/09 02:32:44;;;;;;;71.07;26.02;;;3.20;95.00;;;;;;5004072;28;20444;-81
2021/03/09 02:35:14;;;;;;;72.72;27.63;;;3.20;94.90;;;;;;4990222;28;20034;-80
2021/03/09 02:37:41;;;;;;;64.57;24.15;;;3.20;95.00;;;;;;4992479;28;20444;-81
2021/03/09 02:40:11;;;;;;;71.93;26.65;;;3.20;95.00;;;;;;4975809;28;20509;-81
2021/03/09 02:42:46;;;;;;;55.38;23.75;;;3.20;95.00;;;;;;4989533;28;20356;-82
2021/03/09 02:45:14;;;;;;;68.40;25.23;;;3.20;95.00;;;;;;4988987;28;20037;-85
2021/03/09 02:47:45;;;;;;;62.92;25.98;;;3.20;95.00;;;;;;4991481;28;20037;-82
2021/03/09 02:50:13;;;;;;;76.07;28.38;;;3.20;95.10;;;;;;5006661;28;20528;-83
2021/03/09 02:52:41;;;;;;;78.82;29.38;;;3.20;95.10;;;;;;4976848;28;20443;-83
2021/03/09 02:55:10;;;;;;;58.83;24.33;;;3.20;95.10;;;;;;4987459;28;20049;-84
2021/03/09 02:57:38;;;;;;;77.43;28.23;;;3.20;95.10;;;;;;4978573;28;20052;-83
2021/03/09 03:00:06;;;;;;;65.57;25.73;;;3.20;95.10;;;;;;4986219;28;20050;-83
2021/03/09 03:02:35;;;;;;;80.15;27.77;;;3.20;95.10;;;;;;4989044;28;20042;-83
2021/03/09 03:05:02;;;;;;;79.57;27.40;;;3.20;95.10;;;;;;4988790;28;20041;-80
2021/03/09 03:07:32;;;;;;;71.50;25.45;;;3.30;95.20;;;;;;4974887;28;21558;-84
2021/03/09 03:09:58;;;;;;;95.68;30.45;;;3.30;95.20;;;;;;4974599;28;20071;-82
2021/03/09 03:12:25;;;;;;;72.47;27.77;;;3.30;95.20;;;;;;4955966;28;20148;-83
2021/03/09 03:14:52;;;;;;;77.35;28.38;;;3.30;95.10;;;;;;4976350;28;20592;-83
2021/03/09 03:17:19;;;;;;;74.43;27.33;;;3.30;95.20;;;;;;4994323;28;20080;-84
2021/03/09 03:19:46;;;;;;;116.78;34.67;;;3.30;95.20;;;;;;4978195;28;20042;-84
2021/03/09 03:22:16;;;;;;;76.03;28.45;;;3.30;95.20;;;;;;4960963;28;20038;-83
2021/03/09 03:24:42;;;;;;;73.97;27.85;;;3.30;95.20;;;;;;4973133;28;20196;-82
2021/03/09 03:27:07;;;;;;;72.30;27.33;;;3.30;95.20;;;;;;4993741;28;21055;-82
2021/03/09 03:29:33;;;;;;;63.60;24.35;;;3.30;95.20;;;;;;4994522;28;20034;-82
2021/03/09 03:31:59;;;;;;;74.82;29.48;;;3.30;95.30;;;;;;4976552;28;20036;-83
2021/03/09 03:34:26;;;;;;;88.68;29.10;;;3.40;95.30;;;;;;4960090;28;20497;-83
2021/03/09 03:36:52;;;;;;;77.80;27.90;;;3.40;95.30;;;;;;4976090;28;20401;-83
2021/03/09 03:39:18;;;;;;;100.78;32.35;;;3.40;95.30;;;;;;5000212;28;20056;-83
2021/03/09 03:41:46;;;;;;;99.15;31.02;;;3.40;95.30;;;;;;4984950;28;20519;-81
2021/03/09 03:44:12;;;;;;;80.40;29.60;;;3.40;95.30;;;;;;4999997;28;20240;-82
2021/03/09 03:46:37;;;;;;;77.40;27.20;;;3.40;95.30;;;;;;4998906;28;20038;-81
2021/03/09 03:49:03;;;;;;;81.13;27.88;;;3.40;95.30;;;;;;5001373;28;20124;-80
2021/03/09 03:51:35;;;;;;;80.95;28.70;;;3.40;95.40;;;;;;4960055;28;20603;-82
2021/03/09 03:54:49;;;;;;;70.00;27.95;;;3.40;95.40;;;;;;4994801;28;20065;-81
2021/03/09 03:57:26;;;;;;;89.50;30.02;;;3.40;95.30;;;;;;4994861;28;20038;-82
2021/03/09 03:59:56;;;;;;;120.63;34.05;;;3.40;95.30;;;;;;4997160;28;20037;-80
2021/03/09 04:02:23;;;;;;;110.35;33.50;;;3.50;95.60;;;;;;4999804;28;20136;-82
2021/03/09 04:04:51;;;;;;;68.85;27.88;;;3.50;95.30;;;;;;4996793;28;20038;-80
2021/03/09 04:07:25;;;;;;;78.78;30.10;;;3.50;95.40;;;;;;4979341;28;20054;-82
2021/03/09 04:09:54;;;;;;;92.68;32.15;;;3.50;95.40;;;;;;5007450;28;20034;-82
2021/03/09 04:12:23;;;;;;;99.00;31.23;;;3.50;95.40;;;;;;4996161;28;20149;-82
2021/03/09 04:14:49;;;;;;;86.00;30.30;;;3.50;95.40;;;;;;4994392;28;20631;-82
2021/03/09 04:17:18;;;;;;;100.32;31.63;;;3.40;95.30;;;;;;4982275;28;20045;-82
2021/03/09 04:19:46;;;;;;;84.63;29.58;;;3.50;95.40;;;;;;4995296;28;20061;-82
2021/03/09 04:22:13;;;;;;;78.82;28.67;;;3.50;95.40;;;;;;4970918;28;20042;-81
2021/03/09 04:24:40;;;;;;;81.95;28.45;;;3.50;95.40;;;;;;4996066;28;20044;-82
2021/03/09 04:27:07;;;;;;;106.05;33.35;;;3.50;95.40;;;;;;4957559;28;20084;-83
2021/03/09 04:29:33;;;;;;;122.93;36.25;;;3.50;95.40;;;;;;4972741;28;20046;-82
2021/03/09 04:32:00;;;;;;;137.85;35.85;;;3.50;95.40;;;;;;4994743;28;20053;-82
2021/03/09 04:34:25;;;;;;;96.28;32.47;;;3.50;95.40;;;;;;4974835;28;20034;-83
2021/03/09 04:36:52;;;;;;;107.53;35.10;;;3.50;95.70;;;;;;4979690;28;20068;-82
2021/03/09 04:39:18;;;;;;;92.70;29.40;;;3.50;95.40;;;;;;4993361;28;20049;-82
2021/03/09 04:41:44;;;;;;;133.18;36.35;;;3.50;95.40;;;;;;4976017;28;20465;-80
2021/03/09 04:44:10;;;;;;;104.22;32.92;;;3.50;95.40;;;;;;4973371;28;20389;-83
2021/03/09 04:46:36;;;;;;;119.60;35.30;;;3.50;95.50;;;;;;4975379;28;22082;-84
2021/03/09 04:49:02;;;;;;;122.53;35.65;;;3.50;95.50;;;;;;4975447;28;20042;-83
2021/03/09 04:51:28;;;;;;;110.45;34.47;;;3.50;95.50;;;;;;4972075;28;20112;-82
2021/03/09 04:53:58;;;;;;;179.50;41.47;;;3.50;95.50;;;;;;4976067;28;20029;-83
2021/03/09 04:56:23;;;;;;;144.00;39.08;;;3.50;95.50;;;;;;4980002;28;20037;-83
2021/03/09 04:58:49;;;;;;;151.95;39.00;;;3.50;95.80;;;;;;4977320;28;20045;-83
2021/03/09 05:01:15;;;;;;;141.70;37.92;;;3.50;95.50;;;;;;4989231;28;20489;-81
2021/03/09 05:03:41;;;;;;;150.90;40.20;;;3.50;95.50;;;;;;4961512;28;20062;-82
2021/03/09 05:06:06;;;;;;;103.53;34.15;;;3.60;95.50;;;;;;4975103;28;20404;-81
2021/03/09 05:08:32;;;;;;;124.65;36.42;;;3.60;95.50;;;;;;4991729;28;20042;-83
2021/03/09 05:10:58;;;;;;;107.05;34.80;;;3.60;95.50;;;;;;4963307;28;20034;-84
2021/03/09 05:13:24;;;;;;;132.07;38.55;;;3.60;95.50;;;;;;4992452;28;22549;-83
2021/03/09 05:15:50;;;;;;;115.65;34.63;;;3.60;95.60;;;;;;4992140;28;20128;-83
2021/03/09 05:18:16;;;;;;;123.97;36.28;;;3.60;95.60;;;;;;4993435;28;20547;-83
2021/03/09 05:20:42;;;;;;;131.13;37.40;;;3.60;95.60;;;;;;4995195;28;20038;-82
2021/03/09 05:23:08;;;;;;;140.07;38.50;;;3.60;95.60;;;;;;4998063;28;20184;-83
2021/03/09 05:25:34;;;;;;;157.73;39.78;;;3.60;95.60;;;;;;4978613;28;20562;-83
2021/03/09 05:28:00;;;;;;;111.68;34.63;;;3.70;95.60;;;;;;4975779;28;20213;-82
2021/03/09 05:30:27;;;;;;;162.05;41.50;;;3.60;95.60;;;;;;4996355;28;20030;-82
2021/03/09 05:32:52;;;;;;;130.35;38.33;;;3.60;95.60;;;;;;5007523;28;20045;-81
2021/03/09 05:35:18;;;;;;;122.00;37.65;;;3.70;95.70;;;;;;5006018;28;20033;-82
2021/03/09 05:37:45;;;;;;;169.25;42.63;;;3.70;95.70;;;;;;4987262;28;20083;-83
2021/03/09 05:40:13;;;;;;;127.88;38.75;;;3.70;96.00;;;;;;5005257;28;20045;-82
2021/03/09 05:42:39;;;;;;;184.70;43.90;;;3.70;95.70;;;;;;4989011;28;20035;-81
2021/03/09 05:45:06;;;;;;;144.00;40.70;;;3.70;95.70;;;;;;4963671;28;20026;-82
2021/03/09 05:47:34;;;;;;;217.23;47.30;;;3.70;95.70;;;;;;5007524;28;20263;-83
2021/03/09 05:50:00;;;;;;;213.75;45.97;;;3.70;95.70;;;;;;5008899;28;20048;-83
2021/03/09 05:52:27;;;;;;;196.77;44.67;;;3.70;95.70;;;;;;5005923;28;20033;-83
2021/03/09 05:54:53;;;;;;;193.40;46.50;;;3.70;95.70;;;;;;5006654;28;20372;-84
2021/03/09 05:57:19;;;;;;;208.98;47.38;;;3.80;95.70;;;;;;4982017;28;20033;-81
2021/03/09 05:59:45;;;;;;;174.75;43.72;;;3.80;95.70;;;;;;4970158;28;20034;-82
2021/03/09 06:02:11;;;;;;;191.02;44.17;;;3.80;95.70;;;;;;4978584;28;20046;-82
2021/03/09 06:04:37;;;;;;;258.45;52.13;;;3.80;96.10;;;;;;4974182;28;20040;-82
2021/03/09 06:07:04;;;;;;;244.20;49.10;;;3.80;95.80;;;;;;4989625;28;20034;-83
2021/03/09 06:09:33;;;;;;;207.38;46.00;;;3.80;95.80;;;;;;4976780;28;20042;-82
2021/03/09 06:12:17;;;;;;;224.32;48.65;;;3.80;95.80;;;;;;4991598;28;20034;-84
2021/03/09 06:14:42;;;;;;;197.13;45.47;;;3.80;95.80;;;;;;4987817;28;20073;-84
2021/03/09 06:17:11;;;;;;;251.18;52.95;;;3.90;95.90;;;;;;4993409;28;20042;-84
2021/03/09 06:19:47;;;;;;;232.20;49.35;;;3.80;96.10;;;;;;4984626;28;20030;-82
2021/03/09 06:22:15;;;;;;;201.27;47.58;;;3.90;95.90;;;;;;4987742;28;20042;-82
2021/03/09 06:24:43;;;;;;;280.73;53.42;;;3.90;95.90;;;;;;4975228;28;20152;-83
2021/03/09 06:27:22;;;;;;;306.05;55.95;;;3.90;95.90;;;;;;4971616;28;20029;-82
2021/03/09 06:29:48;;;;;;;312.75;54.55;;;3.90;95.90;;;;;;4991406;28;20096;-85
2021/03/09 06:32:14;;;;;;;293.75;55.75;;;3.90;95.90;;;;;;4960481;28;20045;-81
2021/03/09 06:34:39;;;;;;;346.02;56.80;;;3.90;95.90;;;;;;4990957;28;20042;-84
2021/03/09 06:37:07;;;;;;;274.85;52.22;;;4.00;95.90;;;;;;4959437;28;20064;-83
2021/03/09 06:39:47;;;;;;;303.52;55.63;;;4.00;95.90;;;;;;4988028;28;20065;-84
2021/03/09 06:42:16;;;;;;;245.65;50.00;;;4.00;95.90;;;;;;4992630;28;20164;-85
2021/03/09 06:44:47;;;;;;;265.48;53.67;;;4.00;96.00;;;;;;4987548;28;20592;-84
2021/03/09 06:47:13;;;;;;;337.75;58.17;;;4.00;95.90;;;;;;4989162;28;20343;-82
2021/03/09 06:49:53;;;;;;;307.77;55.67;;;4.00;95.90;;;;;;4973775;28;20045;-84
2021/03/09 06:52:21;;;;;;;340.13;58.72;;;4.10;96.00;;;;;;4988745;28;20124;-82
2021/03/09 06:54:49;;;;;;;284.02;56.17;;;4.10;96.00;;;;;;4974951;28;20034;-83
2021/03/09 06:57:16;;;;;;;252.07;51.58;;;4.10;96.00;;;;;;4995336;28;20030;-84
2021/03/09 06:59:50;;;;;;;319.92;58.00;;;4.10;96.00;;;;;;4975436;28;20046;-81
2021/03/09 07:02:17;;;;;;;353.02;60.28;;;4.10;96.00;;;;;;4991419;28;20042;-83
2021/03/09 07:04:45;;;;;;;307.70;57.90;;;4.20;96.10;;;;;;4992166;28;20041;-84
2021/03/09 07:07:13;;;;;;;265.17;52.92;;;4.20;96.10;;;;;;4992313;28;20080;-85
2021/03/09 07:09:41;;;;;;;427.85;64.53;;;4.30;96.10;;;;;;4981034;28;20030;-83
2021/03/09 07:12:09;;;;;;;311.75;57.90;;;4.20;96.10;;;;;;4987235;28;20044;-81
2021/03/09 07:14:38;;;;;;;322.58;57.30;;;4.30;96.10;;;;;;5007850;28;21590;-83
2021/03/09 07:17:05;;;;;;;369.00;63.67;;;4.30;96.10;;;;;;4994789;28;20034;-84
2021/03/09 07:19:42;;;;;;;375.52;61.53;;;4.30;96.20;;;;;;4989748;28;20047;-84
2021/03/09 07:22:10;;;;;;;299.08;55.88;;;4.30;96.20;;;;;;4996234;28;20493;-82
2021/03/09 07:25:08;;;;;;;399.73;64.47;;;4.40;96.20;;;;;;4994155;28;20481;-83
2021/03/09 07:28:01;;;;;;;367.33;61.50;;;4.40;96.20;;;;;;4980550;28;20058;-83
2021/03/09 07:30:35;;;;;;;405.00;63.78;;;4.40;96.20;;;;;;4990953;28;20496;-84
2021/03/09 07:33:01;;;;;;;366.95;62.50;;;4.50;96.20;;;;;;4974485;28;20038;-83
2021/03/09 07:35:28;;;;;;;452.55;66.15;;;4.50;96.20;;;;;;4987098;28;20657;-84
2021/03/09 07:37:55;;;;;;;480.65;68.60;;;4.50;96.20;;;;;;4962521;28;20068;-81
2021/03/09 07:40:27;;;;;;;482.25;67.85;;;4.50;96.20;;;;;;4988302;28;20508;-80
2021/03/09 07:42:52;;;;;;;637.00;78.70;;;4.60;96.30;;;;;;4994251;28;20045;-80
2021/03/09 07:45:25;;;;;;;726.83;79.97;;;4.60;96.30;;;;;;4943377;28;20050;-81
2021/03/09 07:47:55;;;;;;;735.22;80.25;;;4.60;96.30;;;;;;4994898;28;20476;-84
2021/03/09 07:50:23;;;;;;;643.83;74.38;;;4.70;96.30;;;;;;4991159;28;20084;-83
2021/03/09 07:52:58;;;;;;;837.53;85.35;;;4.70;96.40;;;;;;4995618;28;20045;-82
2021/03/09 07:55:25;;;;;;;748.03;78.93;;;4.70;96.40;;;;;;4993500;28;20037;-84
2021/03/09 07:58:12;;;;;;;956.80;91.45;;;4.80;96.40;;;;;;4963837;28;20042;-81
2021/03/09 08:00:49;;;;;;;856.45;84.38;;;4.80;96.40;;;;;;4991207;28;20111;-82
2021/03/09 08:03:20;;;;;;;994.85;94.18;;;4.90;96.50;;;;;;4991117;28;20042;-83
2021/03/09 08:05:57;;;;;;;766.28;81.00;;;4.90;96.50;;;;;;4976313;28;20037;-83
2021/03/09 08:08:47;;;;;;;856.75;83.63;;;4.90;96.50;;;;;;4991153;28;20042;-83
2021/03/09 08:11:13;;;;;;;1076.88;95.22;;;5.00;96.50;;;;;;4991464;28;21053;-84
2021/03/09 08:13:39;;;;;;;815.08;82.90;;;5.00;96.50;;;;;;4991583;28;20096;-83
2021/03/09 08:16:20;;;;;;;852.42;86.22;;;5.10;96.50;;;;;;4991897;28;20125;-84
2021/03/09 08:18:48;;;;;;;840.20;83.45;;;5.10;96.60;;;;;;4993494;28;20037;-82
2021/03/09 08:21:15;;;;;;;876.17;84.10;;;5.10;96.50;;;;;;4970409;28;20033;-83
2021/03/09 08:23:41;;;;;;;1061.60;91.18;;;5.20;96.60;;;;;;4972954;28;20045;-83
2021/03/09 08:26:14;;;;;;;890.22;84.93;;;5.20;96.60;;;;;;4991958;28;20025;-81
2021/03/09 08:28:42;;;;;;;1076.13;93.85;;;5.20;96.60;;;;;;4990358;28;20048;-82
2021/03/09 08:31:16;;;;;;;955.45;88.22;;;5.20;96.60;;;;;;4970135;28;20412;-81
2021/03/09 08:33:45;;;;;;;893.30;83.60;;;5.30;96.60;;;;;;4989720;28;20124;-82
2021/03/09 08:36:23;;;;;;;833.70;79.20;;;5.30;96.60;;;;;;4994465;28;20078;-84
2021/03/09 08:39:12;;;;;;;728.15;71.97;;;5.40;96.70;;;;;;4991357;28;20100;-83
2021/03/09 08:41:38;;;;;;;824.58;76.95;;;5.40;96.70;;;;;;4997872;28;20052;-80
2021/03/09 08:44:21;;;;;;;855.78;79.93;;;5.40;96.60;;;;;;4994793;28;20205;-81
2021/03/09 08:47:07;;;;;;;872.38;80.72;;;5.50;96.70;;;;;;4995085;28;20038;-83
2021/03/09 08:49:36;;;;;;;815.13;78.75;;;5.50;96.70;;;;;;4992727;28;20516;-83
2021/03/09 08:52:05;;;;;;;1073.75;90.75;;;5.50;96.70;;;;;;4995911;28;20044;-80
2021/03/09 08:54:42;;;;;;;776.35;77.22;;;5.50;96.70;;;;;;4989035;28;20038;-80
2021/03/09 08:57:29;;;;;;;1033.13;87.65;;;5.60;96.70;;;;;;4994059;28;21455;-83
2021/03/09 09:00:10;;;;;;;710.60;71.88;;;5.70;96.70;;;;;;4992574;28;20519;-83
2021/03/09 09:02:41;;;;;;;927.30;86.03;;;5.60;96.70;;;;;;4989961;28;20041;-83
2021/03/09 09:05:08;;;;;;;692.83;77.43;;;5.70;96.70;;;;;;4973469;28;20042;-83
2021/03/09 09:07:36;;;;;;;630.80;72.93;;;5.70;96.70;;;;;;4993593;28;20579;-80
2021/03/09 09:10:11;;;;;;;556.22;68.22;;;5.70;96.70;;;;;;4973749;28;20772;-81
2021/03/09 09:12:48;;;;;;;815.28;81.70;;;5.80;96.70;;;;;;4989636;28;20434;-83
2021/03/09 09:15:33;;;;;;;478.88;64.68;;;5.80;96.70;;;;;;4989710;28;20068;-80
2021/03/09 09:18:07;;;;;;;434.13;62.55;;;5.80;96.70;;;;;;4995672;28;20552;-82
2021/03/09 09:20:46;;;;;;;499.23;68.10;;;5.90;96.70;;;;;;4973531;28;20518;-80
2021/03/09 09:23:20;;;;;;;396.35;60.97;;;5.90;96.70;;;;;;4989525;28;20342;-82
2021/03/09 09:25:56;;;;;;;640.85;71.97;;;5.90;96.70;;;;;;4972542;28;20041;-83
2021/03/09 09:28:25;;;;;;;332.85;56.45;;;5.90;96.70;;;;;;4971470;28;22030;-80
2021/03/09 09:30:52;;;;;;;334.48;60.78;;;6.00;96.70;;;;;;4985185;28;20029;-82
2021/03/09 09:33:18;;;;;;;205.43;48.83;;;6.00;96.70;;;;;;4990571;28;20030;-82
2021/03/09 09:35:46;;;;;;;349.70;61.65;;;5.90;96.70;;;;;;4974216;28;20508;-82
2021/03/09 09:38:15;;;;;;;167.60;46.63;;;5.90;96.70;;;;;;4993428;28;20038;-83
2021/03/09 09:40:43;;;;;;;193.65;50.22;;;5.90;96.60;;;;;;4995052;28;20043;-82
2021/03/09 09:43:14;;;;;;;202.35;51.25;;;6.00;96.70;;;;;;4989309;28;20254;-81
2021/03/09 09:45:48;;;;;;;334.40;60.80;;;6.00;96.70;;;;;;4959256;28;20172;-82
2021/03/09 09:48:20;;;;;;;128.68;43.40;;;6.00;96.70;;;;;;4990573;28;20140;-82
2021/03/09 09:50:48;;;;;;;146.75;45.28;;;6.00;96.70;;;;;;4990053;28;20049;-84
2021/03/09 09:53:32;;;;;;;123.05;44.38;;;6.00;96.60;;;;;;4973111;28;20034;-84
2021/03/09 09:56:00;;;;;;;177.00;45.92;;;6.00;96.60;;;;;;4989695;28;20543;-84
2021/03/09 09:58:49;;;;;;;174.02;46.80;;;6.00;96.50;;;;;;4992102;28;20029;-83
2021/03/09 10:01:40;;;;;;;151.30;44.97;;;6.00;96.50;;;;;;4987851;28;20048;-84
2021/03/09 10:04:07;;;;;;;179.60;46.90;;;5.90;96.80;;;;;;4986985;28;20717;-84
2021/03/09 10:06:46;;;;;;;164.02;46.13;;;5.90;96.50;;;;;;4977454;28;20440;-84
2021/03/09 10:09:16;;;;;;;101.65;40.92;;;5.90;96.50;;;;;;4990984;28;20512;-82
2021/03/09 10:11:53;;;;;;;106.57;40.95;;;5.90;96.50;;;;;;4991368;28;20409;-86
2021/03/09 10:14:24;;;;;;;98.40;37.97;;;5.90;96.50;;;;;;4984685;28;20479;-84
2021/03/09 10:16:50;;;;;;;78.00;35.78;;;5.90;96.40;;;;;;4973310;28;20665;-82
2021/03/09 10:19:21;;;;;;;109.25;39.42;;;5.90;96.40;;;;;;4987041;28;20515;-83
2021/03/09 10:21:56;;;;;;;127.22;41.22;;;5.90;96.40;;;;;;4988152;28;20513;-84
2021/03/09 10:24:28;;;;;;;139.73;41.78;;;5.90;96.40;;;;;;4977017;28;20133;-83
2021/03/09 10:26:54;;;;;;;220.10;47.95;;;6.00;96.40;;;;;;4980456;28;20037;-83
2021/03/09 10:29:22;;;;;;;170.57;43.30;;;5.90;96.30;;;;;;4992421;28;20108;-83
2021/03/09 10:31:52;;;;;;;110.43;38.78;;;5.90;96.30;;;;;;4979815;28;20034;-81
2021/03/09 10:34:52;;;;;;;133.48;39.40;;;5.90;96.30;;;;;;4993020;28;20789;-83
2021/03/09 10:37:31;;;;;;;129.10;40.05;;;5.80;96.20;;;;;;4993779;28;20042;-83
2021/03/09 10:40:04;;;;;;;160.73;43.58;;;5.80;96.20;;;;;;4992761;28;20444;-84
2021/03/09 10:42:38;;;;;;;;;;;5.80;96.20;;;;;;4997921;28;20604;-83
2021/03/09 10:45:16;;;;;;;237.02;46.58;;;5.70;96.20;;;;;;4993398;28;21474;-83
2021/03/09 10:47:50;;;;;;;121.13;39.13;;;5.70;96.20;;;;;;4987151;28;20268;-82
2021/03/09 10:50:16;;;;;;;98.65;37.38;;;5.70;96.20;;;;;;4977380;28;20044;-81
2021/03/09 10:52:42;;;;;;;121.63;39.55;;;5.70;96.50;;;;;;4992186;28;20030;-82
2021/03/09 10:55:09;;;;;;;146.60;40.97;;;5.70;96.20;;;;;;4962885;28;20111;-82
2021/03/09 10:57:34;;;;;;;152.13;43.72;;;5.70;96.30;;;;;;4994288;28;20045;-84
2021/03/09 11:00:02;;;;;;;158.45;43.17;;;5.70;96.30;;;;;;4994594;28;20045;-81
2021/03/09 11:02:28;;;;;;;131.23;42.88;;;5.70;96.20;;;;;;4973033;28;20038;-84
2021/03/09 11:04:54;;;;;;;114.78;41.35;;;5.60;96.20;;;;;;4995310;28;20408;-82
2021/03/09 11:07:20;;;;;;;151.20;44.53;;;5.60;96.20;;;;;;4992577;28;20047;-84
2021/03/09 11:10:07;;;;;;;120.15;41.65;;;5.60;96.20;;;;;;4992921;28;20049;-83
2021/03/09 11:12:33;;;;;;;100.28;39.83;;;5.70;96.20;;;;;;4988591;28;20046;-85
2021/03/09 11:14:59;;;;;;;81.05;34.50;;;5.70;96.20;;;;;;4963083;28;20026;-83
2021/03/09 11:17:25;;;;;;;81.25;34.35;;;5.70;96.20;;;;;;4979606;28;20042;-81
2021/03/09 11:19:51;;;;;;;65.75;30.75;;;5.70;96.10;;;;;;4973160;28;20037;-84
2021/03/09 11:22:17;;;;;;;80.47;34.58;;;5.70;96.10;;;;;;4994131;28;20052;-84
2021/03/09 11:24:43;;;;;;;66.50;32.10;;;5.70;96.00;;;;;;4992608;28;20034;-84
2021/03/09 11:27:09;;;;;;;79.55;34.30;;;5.70;96.00;;;;;;4994591;28;20095;-84
2021/03/09 11:29:36;;;;;;;84.68;36.03;;;5.70;96.00;;;;;;4992807;28;20038;-83
2021/03/09 11:32:03;;;;;;;63.85;31.35;;;5.70;96.20;;;;;;4975560;28;20662;-85
2021/03/09 11:34:29;;;;;;;67.43;31.33;;;5.70;95.90;;;;;;4969709;28;20424;-85
2021/03/09 11:36:55;;;;;;;100.40;37.92;;;5.70;95.90;;;;;;4977604;28;20037;-83
2021/03/09 11:39:21;;;;;;;60.30;30.42;;;5.70;95.80;;;;;;4975473;28;20528;-83
2021/03/09 11:41:49;;;;;;;58.63;29.48;;;5.60;95.90;;;;;;4990066;28;20120;-83
2021/03/09 11:44:15;;;;;;;55.58;28.15;;;5.60;95.80;;;;;;4964635;28;20129;-83
2021/03/09 11:46:41;;;;;;;61.22;31.10;;;5.60;95.80;;;;;;4977491;28;20091;-83
2021/03/09 11:49:07;;;;;;;65.03;32.13;;;5.60;95.80;;;;;;4979480;28;20033;-84
2021/03/09 11:51:33;;;;;;;65.07;32.08;;;5.60;95.80;;;;;;5007324;28;20294;-83
2021/03/09 11:53:59;;;;;;;60.83;30.02;;;5.60;95.80;;;;;;4993746;28;20030;-84
2021/03/09 11:56:26;;;;;;;61.03;31.23;;;5.60;95.70;;;;;;4979432;28;20030;-84
2021/03/09 11:58:52;;;;;;;60.42;29.85;;;5.50;95.60;;;;;;4990731;28;20097;-84
2021/03/09 12:01:19;;;;;;;55.90;27.92;;;5.60;95.60;;;;;;4977614;28;20043;-84
2021/03/09 12:03:47;;;;;;;62.13;29.67;;;5.50;95.60;;;;;;4992247;28;20042;-84
2021/03/09 12:06:16;;;;;;;62.50;29.55;;;5.50;95.70;;;;;;4991895;28;20397;-83
2021/03/09 12:08:41;;;;;;;60.42;30.00;;;5.50;95.70;;;;;;4964411;28;20105;-85
2021/03/09 12:11:07;;;;;;;57.33;28.88;;;5.50;95.60;;;;;;4958643;28;20087;-84
2021/03/09 12:13:34;;;;;;;72.53;33.35;;;5.50;95.60;;;;;;4995047;28;20515;-84
2021/03/09 12:15:59;;;;;;;59.53;29.98;;;5.50;95.70;;;;;;4991691;28;20046;-84
2021/03/09 12:18:25;;;;;;;53.45;27.90;;;5.50;95.70;;;;;;4997460;28;20033;-85
2021/03/09 12:20:51;;;;;;;65.57;32.58;;;5.50;95.70;;;;;;4990183;28;20406;-85
2021/03/09 12:23:17;;;;;;;63.38;30.13;;;5.50;95.60;;;;;;4987083;28;20030;-85
2021/03/09 12:25:43;;;;;;;80.68;35.58;;;5.50;95.60;;;;;;4961523;28;20463;-84
2021/03/09 12:28:08;;;;;;;82.65;36.00;;;5.50;95.60;;;;;;4987999;28;20030;-85
2021/03/09 12:30:34;;;;;;;50.42;28.70;;;5.50;95.60;;;;;;4975063;28;20042;-84
2021/03/09 12:33:00;;;;;;;57.03;30.27;;;5.50;95.60;;;;;;4991445;28;20033;-84
2021/03/09 12:35:26;;;;;;;67.75;32.50;;;5.50;95.60;;;;;;4990494;28;20044;-85
2021/03/09 12:37:52;;;;;;;59.05;31.10;;;5.60;95.60;;;;;;5011491;28;20075;-87
2021/03/09 12:40:19;;;;;;;54.65;29.63;;;5.60;95.50;;;;;;4980848;28;20537;-85
2021/03/09 12:42:44;;;;;;;46.03;26.58;;;5.60;95.50;;;;;;4988188;28;20042;-85